sensor_id;sensor_type;location;lat;lon;timestamp;pressure;altitude;pressure_sealevel;temperature;humidity
19096;BME280;9680;52.520;13.332;2024-03-02T00:00:38;100331.31;;;9.23;87.03
19096;BME280;9680;52.520;13.332;2024-03-02T00:03:06;100333.00;;;9.24;86.99
19096;BME280;9680;52.520;13.332;2024-03-02T00:05:35;100331.31;;;9.23;87.07
19096;BME280;9680;52.520;13.332;2024-03-02T00:08:04;100331.19;;;9.26;87.07
19096;BME280;9680;52.520;13.332;2024-03-02T00:10:36;100327.69;;;9.27;87.14
19096;BME280;9680;52.520;13.332;2024-03-02T00:13:05;100321.72;;;9.25;87.20
19096;BME280;9680;52.520;13.332;2024-03-02T00:15:40;100326.13;;;9.23;87.39
19096;BME280;9680;52.520;13.332;2024-03-02T00:18:10;100326.13;;;9.23;87.37
19096;BME280;9680;52.520;13.332;2024-03-02T00:20:38;100322.63;;;9.24;87.47
19096;BME280;9680;52.520;13.332;2024-03-02T00:23:07;100318.22;;;9.26;87.69
19096;BME280;9680;52.520;13.332;2024-03-02T00:25:38;100315.47;;;9.29;87.36
19096;BME280;9680;52.520;13.332;2024-03-02T00:28:13;100316.34;;;9.30;87.35
19096;BME280;9680;52.520;13.332;2024-03-02T00:30:55;100311.06;;;9.31;87.58
19096;BME280;9680;52.520;13.332;2024-03-02T00:33:23;100311.06;;;9.31;87.16
19096;BME280;9680;52.520;13.332;2024-03-02T00:35:50;100313.78;;;9.28;87.66
19096;BME280;9680;52.520;13.332;2024-03-02T00:38:18;100318.09;;;9.29;87.47
19096;BME280;9680;52.520;13.332;2024-03-02T00:40:45;100307.69;;;9.29;87.74
19096;BME280;9680;52.520;13.332;2024-03-02T00:43:43;100317.06;;;9.33;87.92
19096;BME280;9680;52.520;13.332;2024-03-02T00:46:11;100306.50;;;9.38;87.61
19096;BME280;9680;52.520;13.332;2024-03-02T00:48:40;100308.09;;;9.41;87.28
19096;BME280;9680;52.520;13.332;2024-03-02T00:51:11;100307.19;;;9.42;87.36
19096;BME280;9680;52.520;13.332;2024-03-02T00:53:39;100311.56;;;9.41;87.75
19096;BME280;9680;52.520;13.332;2024-03-02T00:56:09;100308.06;;;9.42;87.57
19096;BME280;9680;52.520;13.332;2024-03-02T00:58:36;100311.47;;;9.43;87.55
19096;BME280;9680;52.520;13.332;2024-03-02T01:01:03;100315.78;;;9.44;87.40
19096;BME280;9680;52.520;13.332;2024-03-02T01:03:31;100312.28;;;9.45;87.82
19096;BME280;9680;52.520;13.332;2024-03-02T01:05:58;100313.06;;;9.47;87.48
19096;BME280;9680;52.520;13.332;2024-03-02T01:08:24;100310.41;;;9.49;87.82
19096;BME280;9680;52.520;13.332;2024-03-02T01:10:53;100307.72;;;9.50;87.70
19096;BME280;9680;52.520;13.332;2024-03-02T01:13:21;100309.50;;;9.50;87.77
19096;BME280;9680;52.520;13.332;2024-03-02T01:15:48;100308.59;;;9.51;87.55
19096;BME280;9680;52.520;13.332;2024-03-02T01:18:15;100294.69;;;9.52;87.58
19096;BME280;9680;52.520;13.332;2024-03-02T01:20:42;100302.34;;;9.55;87.75
19096;BME280;9680;52.520;13.332;2024-03-02T01:23:08;100310.19;;;9.53;87.47
19096;BME280;9680;52.520;13.332;2024-03-02T01:25:35;100295.50;;;9.52;87.66
19096;BME280;9680;52.520;13.332;2024-03-02T01:28:04;100298.09;;;9.52;87.93
19096;BME280;9680;52.520;13.332;2024-03-02T01:30:31;100291.16;;;9.53;88.14
19096;BME280;9680;52.520;13.332;2024-03-02T01:32:58;100292.91;;;9.52;88.28
19096;BME280;9680;52.520;13.332;2024-03-02T01:35:25;100286.81;;;9.53;88.45
19096;BME280;9680;52.520;13.332;2024-03-02T01:37:53;100292.78;;;9.55;88.51
19096;BME280;9680;52.520;13.332;2024-03-02T01:40:19;100281.56;;;9.55;88.49
19096;BME280;9680;52.520;13.332;2024-03-02T01:42:46;100282.34;;;9.57;88.77
19096;BME280;9680;52.520;13.332;2024-03-02T01:45:15;100285.75;;;9.57;89.17
19096;BME280;9680;52.520;13.332;2024-03-02T01:47:41;100281.34;;;9.59;89.14
19096;BME280;9680;52.520;13.332;2024-03-02T01:50:09;100273.53;;;9.59;89.44
19096;BME280;9680;52.520;13.332;2024-03-02T01:52:39;100269.25;;;9.58;89.04
19096;BME280;9680;52.520;13.332;2024-03-02T01:55:06;100274.59;;;9.55;89.51
19096;BME280;9680;52.520;13.332;2024-03-02T01:57:37;100264.25;;;9.54;89.80
19096;BME280;9680;52.520;13.332;2024-03-02T02:00:05;100260.09;;;9.50;89.85
19096;BME280;9680;52.520;13.332;2024-03-02T02:02:38;100261.91;;;9.47;90.00
19096;BME280;9680;52.520;13.332;2024-03-02T02:05:05;100266.38;;;9.44;90.06
19096;BME280;9680;52.520;13.332;2024-03-02T02:07:32;100254.25;;;9.44;90.63
19096;BME280;9680;52.520;13.332;2024-03-02T02:10:00;100257.75;;;9.43;91.20
19096;BME280;9680;52.520;13.332;2024-03-02T02:12:27;100248.31;;;9.41;91.08
19096;BME280;9680;52.520;13.332;2024-03-02T02:14:54;100247.59;;;9.37;91.26
19096;BME280;9680;52.520;13.332;2024-03-02T02:17:21;100249.34;;;9.37;92.00
19096;BME280;9680;52.520;13.332;2024-03-02T02:19:49;100246.69;;;9.38;91.86
19096;BME280;9680;52.520;13.332;2024-03-02T02:22:17;100243.06;;;9.42;92.09
19096;BME280;9680;52.520;13.332;2024-03-02T02:24:44;100241.25;;;9.44;92.16
19096;BME280;9680;52.520;13.332;2024-03-02T02:27:10;100240.25;;;9.47;92.37
19096;BME280;9680;52.520;13.332;2024-03-02T02:29:40;100240.25;;;9.47;92.11
19096;BME280;9680;52.520;13.332;2024-03-02T02:32:07;100234.16;;;9.48;92.21
19096;BME280;9680;52.520;13.332;2024-03-02T02:34:34;100235.84;;;9.49;92.47
19096;BME280;9680;52.520;13.332;2024-03-02T02:37:00;100240.97;;;9.51;92.55
19096;BME280;9680;52.520;13.332;2024-03-02T02:39:29;100234.78;;;9.53;92.77
19096;BME280;9680;52.520;13.332;2024-03-02T02:41:56;100247.63;;;9.58;92.80
19096;BME280;9680;52.520;13.332;2024-03-02T02:44:23;100242.28;;;9.61;92.99
19096;BME280;9680;52.520;13.332;2024-03-02T02:46:49;100243.94;;;9.64;92.97
19096;BME280;9680;52.520;13.332;2024-03-02T02:49:16;100245.50;;;9.68;92.93
19096;BME280;9680;52.520;13.332;2024-03-02T02:51:43;100249.78;;;9.69;93.14
19096;BME280;9680;52.520;13.332;2024-03-02T02:54:10;100242.88;;;9.68;92.97
19096;BME280;9680;52.520;13.332;2024-03-02T02:56:38;100248.09;;;9.68;92.83
19096;BME280;9680;52.520;13.332;2024-03-02T02:59:05;100251.47;;;9.70;93.32
19096;BME280;9680;52.520;13.332;2024-03-02T03:01:31;100250.56;;;9.71;93.25
19096;BME280;9680;52.520;13.332;2024-03-02T03:03:58;100251.34;;;9.73;93.06
19096;BME280;9680;52.520;13.332;2024-03-02T03:06:25;100243.53;;;9.73;93.22
19096;BME280;9680;52.520;13.332;2024-03-02T03:08:51;100252.16;;;9.73;93.46
19096;BME280;9680;52.520;13.332;2024-03-02T03:11:18;100259.16;;;9.73;93.38
19096;BME280;9680;52.520;13.332;2024-03-02T03:13:46;100248.66;;;9.74;93.66
19096;BME280;9680;52.520;13.332;2024-03-02T03:16:13;100243.47;;;9.74;93.73
19096;BME280;9680;52.520;13.332;2024-03-02T03:18:40;100255.50;;;9.77;93.56
19096;BME280;9680;52.520;13.332;2024-03-02T03:21:07;100249.44;;;9.76;93.84
19096;BME280;9680;52.520;13.332;2024-03-02T03:23:34;100242.53;;;9.75;93.62
19096;BME280;9680;52.520;13.332;2024-03-02T03:26:00;100243.31;;;9.77;94.01
19096;BME280;9680;52.520;13.332;2024-03-02T03:28:27;100246.78;;;9.78;93.90
19096;BME280;9680;52.520;13.332;2024-03-02T03:30:55;100244.19;;;9.78;93.69
19096;BME280;9680;52.520;13.332;2024-03-02T03:33:22;100240.72;;;9.77;94.05
19096;BME280;9680;52.520;13.332;2024-03-02T03:35:49;100245.88;;;9.79;93.91
19096;BME280;9680;52.520;13.332;2024-03-02T03:38:15;100246.72;;;9.80;93.92
19096;BME280;9680;52.520;13.332;2024-03-02T03:40:42;100246.78;;;9.78;94.17
19096;BME280;9680;52.520;13.332;2024-03-02T03:43:10;100242.50;;;9.77;94.32
19096;BME280;9680;52.520;13.332;2024-03-02T03:45:37;100238.13;;;9.77;94.20
19096;BME280;9680;52.520;13.332;2024-03-02T03:48:05;100244.97;;;9.80;94.45
19096;BME280;9680;52.520;13.332;2024-03-02T03:50:32;100240.53;;;9.82;94.49
19096;BME280;9680;52.520;13.332;2024-03-02T03:52:59;100237.06;;;9.82;94.37
19096;BME280;9680;52.520;13.332;2024-03-02T03:55:26;100240.47;;;9.84;94.07
19096;BME280;9680;52.520;13.332;2024-03-02T03:57:52;100240.41;;;9.85;94.09
19096;BME280;9680;52.520;13.332;2024-03-02T04:00:19;100245.63;;;9.85;94.56
19096;BME280;9680;52.520;13.332;2024-03-02T04:02:46;100241.31;;;9.84;94.25
19096;BME280;9680;52.520;13.332;2024-03-02T04:05:14;100244.75;;;9.85;94.20
19096;BME280;9680;52.520;13.332;2024-03-02T04:07:41;100251.66;;;9.86;94.19
19096;BME280;9680;52.520;13.332;2024-03-02T04:10:09;100247.34;;;9.85;94.45
19096;BME280;9680;52.520;13.332;2024-03-02T04:12:37;100250.88;;;9.84;94.32
19096;BME280;9680;52.520;13.332;2024-03-02T04:15:05;100253.53;;;9.82;94.69
19096;BME280;9680;52.520;13.332;2024-03-02T04:17:33;100259.66;;;9.81;94.51
19096;BME280;9680;52.520;13.332;2024-03-02T04:20:01;100257.88;;;9.82;94.58
19096;BME280;9680;52.520;13.332;2024-03-02T04:22:32;100263.19;;;9.80;94.84
19096;BME280;9680;52.520;13.332;2024-03-02T04:25:00;100264.91;;;9.80;94.85
19096;BME280;9680;52.520;13.332;2024-03-02T04:27:26;100270.97;;;9.80;94.78
19096;BME280;9680;52.520;13.332;2024-03-02T04:29:52;100265.00;;;9.78;94.82
19096;BME280;9680;52.520;13.332;2024-03-02T04:32:19;100265.91;;;9.77;95.36
19096;BME280;9680;52.520;13.332;2024-03-02T04:34:46;100264.22;;;9.76;95.01
19096;BME280;9680;52.520;13.332;2024-03-02T04:37:12;100265.97;;;9.75;95.41
19096;BME280;9680;52.520;13.332;2024-03-02T04:39:41;100263.34;;;9.75;95.14
19096;BME280;9680;52.520;13.332;2024-03-02T04:42:08;100264.22;;;9.76;95.28
19096;BME280;9680;52.520;13.332;2024-03-02T04:44:34;100263.31;;;9.77;95.52
19096;BME280;9680;52.520;13.332;2024-03-02T04:47:02;100277.09;;;9.79;95.55
19096;BME280;9680;52.520;13.332;2024-03-02T04:49:29;100276.22;;;9.79;95.47
19096;BME280;9680;52.520;13.332;2024-03-02T04:51:56;100270.91;;;9.82;95.68
19096;BME280;9680;52.520;13.332;2024-03-02T04:54:23;100274.28;;;9.84;95.61
19096;BME280;9680;52.520;13.332;2024-03-02T04:56:51;100276.97;;;9.82;95.41
19096;BME280;9680;52.520;13.332;2024-03-02T04:59:18;100283.78;;;9.85;95.73
19096;BME280;9680;52.520;13.332;2024-03-02T05:01:45;100288.19;;;9.83;95.23
19096;BME280;9680;52.520;13.332;2024-03-02T05:04:12;100288.16;;;9.84;95.63
19096;BME280;9680;52.520;13.332;2024-03-02T05:06:39;100293.28;;;9.86;95.13
19096;BME280;9680;52.520;13.332;2024-03-02T05:09:06;100289.84;;;9.85;95.64
19096;BME280;9680;52.520;13.332;2024-03-02T05:11:34;100293.34;;;9.84;95.34
19096;BME280;9680;52.520;13.332;2024-03-02T05:14:28;100295.94;;;9.84;95.49
19096;BME280;9680;52.520;13.332;2024-03-02T05:16:55;100308.06;;;9.85;95.62
19096;BME280;9680;52.520;13.332;2024-03-02T05:19:21;100298.56;;;9.84;95.34
19096;BME280;9680;52.520;13.332;2024-03-02T05:21:48;100302.06;;;9.83;95.48
19096;BME280;9680;52.520;13.332;2024-03-02T05:24:15;100309.13;;;9.80;95.62
19096;BME280;9680;52.520;13.332;2024-03-02T05:26:42;100313.50;;;9.79;95.47
19096;BME280;9680;52.520;13.332;2024-03-02T05:29:09;100313.50;;;9.79;95.53
19096;BME280;9680;52.520;13.332;2024-03-02T05:31:37;100313.44;;;9.81;95.37
19096;BME280;9680;52.520;13.332;2024-03-02T05:34:04;100312.66;;;9.79;95.62
19096;BME280;9680;52.520;13.332;2024-03-02T05:36:30;100317.84;;;9.79;95.71
19096;BME280;9680;52.520;13.332;2024-03-02T05:38:57;100324.03;;;9.76;95.65
19096;BME280;9680;52.520;13.332;2024-03-02T05:44:15;100325.88;;;9.74;95.83
19096;BME280;9680;52.520;13.332;2024-03-02T05:46:43;100324.22;;;9.71;95.46
19096;BME280;9680;52.520;13.332;2024-03-02T05:49:10;100321.75;;;9.68;95.56
19096;BME280;9680;52.520;13.332;2024-03-02T05:51:37;100340.84;;;9.67;95.81
19096;BME280;9680;52.520;13.332;2024-03-02T05:54:04;100340.81;;;9.69;96.16
19096;BME280;9680;52.520;13.332;2024-03-02T05:56:30;100338.22;;;9.69;95.83
19096;BME280;9680;52.520;13.332;2024-03-02T05:58:57;100353.81;;;9.69;96.02
19096;BME280;9680;52.520;13.332;2024-03-02T06:01:34;100349.53;;;9.68;95.60
19096;BME280;9680;52.520;13.332;2024-03-02T06:04:02;100350.34;;;9.68;95.68
19096;BME280;9680;52.520;13.332;2024-03-02T06:06:29;100356.53;;;9.66;95.99
19096;BME280;9680;52.520;13.332;2024-03-02T06:08:57;100349.78;;;9.61;95.74
19096;BME280;9680;52.520;13.332;2024-03-02T06:11:24;100351.56;;;9.59;95.86
19096;BME280;9680;52.520;13.332;2024-03-02T06:13:51;100349.03;;;9.58;95.78
19096;BME280;9680;52.520;13.332;2024-03-02T06:16:18;100357.56;;;9.61;96.10
19096;BME280;9680;52.520;13.332;2024-03-02T06:18:45;100357.50;;;9.63;95.74
19096;BME280;9680;52.520;13.332;2024-03-02T06:21:13;100349.81;;;9.60;95.80
19096;BME280;9680;52.520;13.332;2024-03-02T06:23:39;100350.59;;;9.62;95.59
19096;BME280;9680;52.520;13.332;2024-03-02T06:26:06;100345.41;;;9.62;95.51
19096;BME280;9680;52.520;13.332;2024-03-02T06:28:33;100341.06;;;9.63;95.39
19096;BME280;9680;52.520;13.332;2024-03-02T06:31:01;100346.13;;;9.66;95.21
19096;BME280;9680;52.520;13.332;2024-03-02T06:33:28;100342.56;;;9.68;95.20
19096;BME280;9680;52.520;13.332;2024-03-02T06:35:55;100346.78;;;9.71;94.93
19096;BME280;9680;52.520;13.332;2024-03-02T06:38:23;100346.72;;;9.72;94.50
19096;BME280;9680;52.520;13.332;2024-03-02T06:40:52;100341.59;;;9.71;94.62
19096;BME280;9680;52.520;13.332;2024-03-02T06:43:41;100343.47;;;9.67;94.25
19096;BME280;9680;52.520;13.332;2024-03-02T06:46:07;100342.69;;;9.65;94.09
19096;BME280;9680;52.520;13.332;2024-03-02T06:48:35;100352.25;;;9.65;94.30
19096;BME280;9680;52.520;13.332;2024-03-02T06:51:01;100351.50;;;9.61;94.21
19096;BME280;9680;52.520;13.332;2024-03-02T06:53:32;100357.88;;;9.54;93.91
19096;BME280;9680;52.520;13.332;2024-03-02T06:56:00;100362.22;;;9.53;94.15
19096;BME280;9680;52.520;13.332;2024-03-02T06:58:26;100367.38;;;9.55;94.29
19096;BME280;9680;52.520;13.332;2024-03-02T07:00:53;100357.78;;;9.55;94.50
19096;BME280;9680;52.520;13.332;2024-03-02T07:03:20;100372.47;;;9.56;94.22
19096;BME280;9680;52.520;13.332;2024-03-02T07:05:47;100369.97;;;9.55;94.17
19096;BME280;9680;52.520;13.332;2024-03-02T07:08:13;100374.31;;;9.54;94.18
19096;BME280;9680;52.520;13.332;2024-03-02T07:10:42;100381.06;;;9.58;94.34
19096;BME280;9680;52.520;13.332;2024-03-02T07:13:08;100375.66;;;9.65;94.48
19096;BME280;9680;52.520;13.332;2024-03-02T07:15:35;100380.41;;;9.75;94.43
19096;BME280;9680;52.520;13.332;2024-03-02T07:18:43;100378.22;;;9.87;93.92
19096;BME280;9680;52.520;13.332;2024-03-02T07:21:31;100374.41;;;9.96;93.69
19096;BME280;9680;52.520;13.332;2024-03-02T07:24:15;100362.91;;;10.01;93.34
19096;BME280;9680;52.520;13.332;2024-03-02T07:26:44;100367.78;;;10.09;93.07
19096;BME280;9680;52.520;13.332;2024-03-02T07:29:10;100371.03;;;10.14;92.96
19096;BME280;9680;52.520;13.332;2024-03-02T07:31:37;100379.47;;;10.19;92.72
19096;BME280;9680;52.520;13.332;2024-03-02T07:34:04;100385.34;;;10.25;92.51
19096;BME280;9680;52.520;13.332;2024-03-02T07:36:31;100390.50;;;10.26;91.85
19096;BME280;9680;52.520;13.332;2024-03-02T07:38:57;100396.66;;;10.24;91.67
19096;BME280;9680;52.520;13.332;2024-03-02T07:41:24;100401.03;;;10.23;91.89
19096;BME280;9680;52.520;13.332;2024-03-02T07:43:52;100404.44;;;10.25;91.48
19096;BME280;9680;52.520;13.332;2024-03-02T07:46:19;100410.41;;;10.27;91.60
19096;BME280;9680;52.520;13.332;2024-03-02T07:48:46;100420.88;;;10.26;90.91
19096;BME280;9680;52.520;13.332;2024-03-02T07:51:13;100414.97;;;10.22;90.73
19096;BME280;9680;52.520;13.332;2024-03-02T07:53:40;100425.56;;;10.17;90.93
19096;BME280;9680;52.520;13.332;2024-03-02T07:56:07;100428.16;;;10.17;90.75
19096;BME280;9680;52.520;13.332;2024-03-02T07:58:34;100425.63;;;10.16;90.68
19096;BME280;9680;52.520;13.332;2024-03-02T08:01:03;100432.47;;;10.18;91.02
19096;BME280;9680;52.520;13.332;2024-03-02T08:03:30;100436.50;;;10.26;90.93
19096;BME280;9680;52.520;13.332;2024-03-02T08:05:59;100432.75;;;10.33;90.74
19096;BME280;9680;52.520;13.332;2024-03-02T08:08:26;100435.09;;;10.39;90.17
19096;BME280;9680;52.520;13.332;2024-03-02T08:10:53;100436.00;;;10.38;89.75
19096;BME280;9680;52.520;13.332;2024-03-02T08:13:20;100435.69;;;10.46;89.65
19096;BME280;9680;52.520;13.332;2024-03-02T08:15:47;100431.22;;;10.49;89.33
19096;BME280;9680;52.520;13.332;2024-03-02T08:18:15;100429.53;;;10.48;89.29
19096;BME280;9680;52.520;13.332;2024-03-02T08:20:42;100437.22;;;10.52;88.81
19096;BME280;9680;52.520;13.332;2024-03-02T08:23:09;100446.72;;;10.53;88.25
19096;BME280;9680;52.520;13.332;2024-03-02T08:25:36;100450.22;;;10.52;87.77
19096;BME280;9680;52.520;13.332;2024-03-02T08:30:46;100439.03;;;10.49;88.14
19096;BME280;9680;52.520;13.332;2024-03-02T08:33:12;100444.09;;;10.53;87.75
19096;BME280;9680;52.520;13.332;2024-03-02T08:35:41;100435.84;;;10.63;88.04
19096;BME280;9680;52.520;13.332;2024-03-02T08:38:07;100447.59;;;10.72;87.33
19096;BME280;9680;52.520;13.332;2024-03-02T08:40:34;100451.84;;;10.75;86.92
19096;BME280;9680;52.520;13.332;2024-03-02T08:43:01;100451.00;;;10.74;86.93
19096;BME280;9680;52.520;13.332;2024-03-02T08:45:28;100449.03;;;10.80;87.04
19096;BME280;9680;52.520;13.332;2024-03-02T08:47:55;100449.91;;;10.80;86.84
19096;BME280;9680;52.520;13.332;2024-03-02T08:50:24;100458.69;;;10.77;86.87
19096;BME280;9680;52.520;13.332;2024-03-02T08:52:52;100462.97;;;10.78;86.58
19096;BME280;9680;52.520;13.332;2024-03-02T08:55:19;100450.03;;;10.77;86.83
19096;BME280;9680;52.520;13.332;2024-03-02T08:57:46;100466.50;;;10.77;86.92
19096;BME280;9680;52.520;13.332;2024-03-02T09:00:16;100457.97;;;10.74;86.66
19096;BME280;9680;52.520;13.332;2024-03-02T09:02:44;100469.19;;;10.76;87.25
19096;BME280;9680;52.520;13.332;2024-03-02T09:05:11;100464.81;;;10.76;87.01
19096;BME280;9680;52.520;13.332;2024-03-02T09:07:38;100468.28;;;10.77;87.11
19096;BME280;9680;52.520;13.332;2024-03-02T09:10:08;100469.19;;;10.76;86.67
19096;BME280;9680;52.520;13.332;2024-03-02T09:12:35;100472.63;;;10.76;86.71
19096;BME280;9680;52.520;13.332;2024-03-02T09:15:03;100477.69;;;10.80;86.72
19096;BME280;9680;52.520;13.332;2024-03-02T09:17:30;100481.06;;;10.82;86.54
19096;BME280;9680;52.520;13.332;2024-03-02T09:19:56;100483.50;;;10.86;86.37
19096;BME280;9680;52.520;13.332;2024-03-02T09:22:23;100486.03;;;10.88;86.32
19096;BME280;9680;52.520;13.332;2024-03-02T09:24:50;100487.66;;;10.90;86.41
19096;BME280;9680;52.520;13.332;2024-03-02T09:27:19;100485.09;;;10.89;85.92
19096;BME280;9680;52.520;13.332;2024-03-02T09:29:45;100490.28;;;10.90;85.83
19096;BME280;9680;52.520;13.332;2024-03-02T09:32:13;100488.56;;;10.89;85.84
19096;BME280;9680;52.520;13.332;2024-03-02T09:34:40;100492.00;;;10.90;85.56
19096;BME280;9680;52.520;13.332;2024-03-02T09:37:07;100489.16;;;10.96;85.94
19096;BME280;9680;52.520;13.332;2024-03-02T09:39:34;100496.59;;;11.05;85.67
19096;BME280;9680;52.520;13.332;2024-03-02T09:42:01;100494.41;;;11.15;85.01
19096;BME280;9680;52.520;13.332;2024-03-02T09:44:32;100480.16;;;11.22;84.69
19096;BME280;9680;52.520;13.332;2024-03-02T09:46:59;100484.13;;;11.31;84.68
19096;BME280;9680;52.520;13.332;2024-03-02T09:49:26;100483.44;;;11.47;84.52
19096;BME280;9680;52.520;13.332;2024-03-02T09:51:53;100486.13;;;11.64;83.57
19096;BME280;9680;52.520;13.332;2024-03-02T09:54:20;100473.47;;;11.74;82.96
19096;BME280;9680;52.520;13.332;2024-03-02T09:56:47;100473.66;;;11.89;82.40
19096;BME280;9680;52.520;13.332;2024-03-02T09:59:14;100475.44;;;12.07;82.24
19096;BME280;9680;52.520;13.332;2024-03-02T10:01:57;100479.00;;;12.24;81.26
19096;BME280;9680;52.520;13.332;2024-03-02T10:04:25;100473.72;;;12.43;80.78
19096;BME280;9680;52.520;13.332;2024-03-02T10:07:09;100475.59;;;12.57;79.83
19096;BME280;9680;52.520;13.332;2024-03-02T10:09:37;100474.91;;;12.71;79.81
19096;BME280;9680;52.520;13.332;2024-03-02T10:12:04;100477.81;;;12.82;78.96
19096;BME280;9680;52.520;13.332;2024-03-02T10:14:31;100472.75;;;12.97;78.71
19096;BME280;9680;52.520;13.332;2024-03-02T10:17:03;100477.22;;;13.11;78.18
19096;BME280;9680;52.520;13.332;2024-03-02T10:19:30;100475.56;;;13.26;77.40
19096;BME280;9680;52.520;13.332;2024-03-02T10:21:59;100476.00;;;13.34;76.60
19096;BME280;9680;52.520;13.332;2024-03-02T10:24:26;100474.75;;;13.42;75.94
19096;BME280;9680;52.520;13.332;2024-03-02T10:26:52;100476.66;;;13.56;75.79
19096;BME280;9680;52.520;13.332;2024-03-02T10:29:19;100473.78;;;13.60;74.80
19096;BME280;9680;52.520;13.332;2024-03-02T10:31:47;100478.25;;;13.58;74.45
19096;BME280;9680;52.520;13.332;2024-03-02T10:34:15;100469.16;;;13.65;74.08
19096;BME280;9680;52.520;13.332;2024-03-02T10:36:43;100474.63;;;13.77;73.79
19096;BME280;9680;52.520;13.332;2024-03-02T10:39:12;100465.97;;;13.91;73.62
19096;BME280;9680;52.520;13.332;2024-03-02T10:41:40;100464.63;;;14.00;72.88
19096;BME280;9680;52.520;13.332;2024-03-02T10:44:08;100468.47;;;13.94;71.43
19096;BME280;9680;52.520;13.332;2024-03-02T10:46:37;100471.16;;;13.92;71.44
19096;BME280;9680;52.520;13.332;2024-03-02T10:49:05;100473.25;;;13.86;71.28
19096;BME280;9680;52.520;13.332;2024-03-02T10:51:33;100473.34;;;13.84;71.71
19096;BME280;9680;52.520;13.332;2024-03-02T10:54:02;100466.78;;;13.77;71.35
19096;BME280;9680;52.520;13.332;2024-03-02T10:56:31;100463.06;;;13.65;71.24
19096;BME280;9680;52.520;13.332;2024-03-02T10:59:03;100472.13;;;13.42;71.21
19096;BME280;9680;52.520;13.332;2024-03-02T11:01:32;100464.53;;;13.21;71.57
19096;BME280;9680;52.520;13.332;2024-03-02T11:03:59;100470.56;;;13.05;72.11
19096;BME280;9680;52.520;13.332;2024-03-02T11:06:29;100472.25;;;13.06;72.89
19096;BME280;9680;52.520;13.332;2024-03-02T11:09:05;100478.16;;;13.10;72.88
19096;BME280;9680;52.520;13.332;2024-03-02T11:11:37;100479.50;;;13.17;72.64
19096;BME280;9680;52.520;13.332;2024-03-02T11:14:09;100470.34;;;13.26;72.40
19096;BME280;9680;52.520;13.332;2024-03-02T11:16:38;100472.13;;;13.42;71.99
19096;BME280;9680;52.520;13.332;2024-03-02T11:19:09;100471.41;;;13.56;71.85
19096;BME280;9680;52.520;13.332;2024-03-02T11:21:38;100461.63;;;13.75;71.25
19096;BME280;9680;52.520;13.332;2024-03-02T11:24:33;100465.66;;;13.97;70.90
19096;BME280;9680;52.520;13.332;2024-03-02T11:27:03;100463.56;;;14.18;70.07
19096;BME280;9680;52.520;13.332;2024-03-02T11:29:45;100461.19;;;14.30;69.53
19096;BME280;9680;52.520;13.332;2024-03-02T11:32:17;100460.19;;;14.47;68.94
19096;BME280;9680;52.520;13.332;2024-03-02T11:34:49;100453.47;;;14.57;68.06
19096;BME280;9680;52.520;13.332;2024-03-02T11:37:19;100459.88;;;14.67;67.38
19096;BME280;9680;52.520;13.332;2024-03-02T11:39:50;100456.44;;;14.81;67.03
19096;BME280;9680;52.520;13.332;2024-03-02T11:42:17;100460.97;;;14.94;66.54
19096;BME280;9680;52.520;13.332;2024-03-02T11:44:46;100463.03;;;15.03;66.22
19096;BME280;9680;52.520;13.332;2024-03-02T11:47:15;100461.78;;;15.09;65.71
19096;BME280;9680;52.520;13.332;2024-03-02T11:49:44;100465.72;;;15.16;65.46
19096;BME280;9680;52.520;13.332;2024-03-02T11:52:12;100471.25;;;15.11;64.62
19096;BME280;9680;52.520;13.332;2024-03-02T11:54:41;100466.19;;;15.08;64.42
19096;BME280;9680;52.520;13.332;2024-03-02T11:57:14;100465.81;;;15.14;64.64
19096;BME280;9680;52.520;13.332;2024-03-02T11:59:42;100457.00;;;15.16;64.11
19096;BME280;9680;52.520;13.332;2024-03-02T12:02:15;100462.06;;;15.19;63.48
19096;BME280;9680;52.520;13.332;2024-03-02T12:04:42;100463.75;;;15.20;64.00
19096;BME280;9680;52.520;13.332;2024-03-02T12:07:10;100460.00;;;15.24;64.08
19096;BME280;9680;52.520;13.332;2024-03-02T12:09:37;100461.22;;;15.33;63.52
19096;BME280;9680;52.520;13.332;2024-03-02T12:12:05;100463.91;;;15.31;63.22
19096;BME280;9680;52.520;13.332;2024-03-02T12:14:34;100466.66;;;15.29;62.87
19096;BME280;9680;52.520;13.332;2024-03-02T12:17:02;100464.03;;;15.29;63.23
19096;BME280;9680;52.520;13.332;2024-03-02T12:19:29;100455.84;;;15.34;62.51
19096;BME280;9680;52.520;13.332;2024-03-02T12:21:57;100455.03;;;15.34;62.63
19096;BME280;9680;52.520;13.332;2024-03-02T12:24:25;100453.78;;;15.39;62.85
19096;BME280;9680;52.520;13.332;2024-03-02T12:26:53;100451.72;;;15.44;62.48
19096;BME280;9680;52.520;13.332;2024-03-02T12:29:20;100440.59;;;15.41;62.35
19096;BME280;9680;52.520;13.332;2024-03-02T12:31:49;100446.09;;;15.36;62.61
19096;BME280;9680;52.520;13.332;2024-03-02T12:34:17;100444.53;;;15.34;62.42
19096;BME280;9680;52.520;13.332;2024-03-02T12:36:45;100442.03;;;15.18;62.06
19096;BME280;9680;52.520;13.332;2024-03-02T12:39:15;100440.34;;;15.17;62.57
19096;BME280;9680;52.520;13.332;2024-03-02T12:41:42;100448.28;;;15.29;62.95
19096;BME280;9680;52.520;13.332;2024-03-02T12:44:09;100439.47;;;15.31;62.24
19096;BME280;9680;52.520;13.332;2024-03-02T12:46:35;100445.75;;;15.28;62.48
19096;BME280;9680;52.520;13.332;2024-03-02T12:49:08;100442.22;;;15.14;62.50
19096;BME280;9680;52.520;13.332;2024-03-02T12:51:35;100451.41;;;15.07;62.79
19096;BME280;9680;52.520;13.332;2024-03-02T12:54:03;100445.84;;;14.97;63.21
19096;BME280;9680;52.520;13.332;2024-03-02T12:56:31;100445.50;;;14.89;63.28
19096;BME280;9680;52.520;13.332;2024-03-02T12:58:58;100445.78;;;14.99;63.64
19096;BME280;9680;52.520;13.332;2024-03-02T13:01:25;100439.78;;;15.11;63.47
19096;BME280;9680;52.520;13.332;2024-03-02T13:03:53;100439.59;;;15.14;63.00
19096;BME280;9680;52.520;13.332;2024-03-02T13:06:22;100448.22;;;15.02;62.66